createdAt,value
2023-02-06T00:02:25.321Z,-4.15
2023-02-06T00:07:26.995Z,-4.27
2023-02-06T00:12:28.839Z,-4.42
2023-02-06T00:17:30.525Z,-4.59
2023-02-06T00:22:32.323Z,-4.76
2023-02-06T00:27:34.264Z,-4.91
2023-02-06T00:32:36.828Z,-5.04
2023-02-06T00:37:38.571Z,-5.16
2023-02-06T00:42:40.344Z,-5.19
2023-02-06T00:47:42.170Z,-5.16
2023-02-06T00:52:45.043Z,-5.10
2023-02-06T00:57:46.720Z,-5.03
2023-02-06T01:02:49.089Z,-4.97
2023-02-06T01:07:51.073Z,-4.95
2023-02-06T01:12:52.801Z,-4.93
2023-02-06T01:17:54.510Z,-4.92
2023-02-06T01:22:56.260Z,-4.86
2023-02-06T01:27:58.247Z,-4.73
2023-02-06T01:33:00.117Z,-4.62
2023-02-06T01:38:01.766Z,-4.59
2023-02-06T01:43:03.375Z,-4.58
2023-02-06T01:48:12.093Z,-4.53
2023-02-06T01:53:17.300Z,-4.41
2023-02-06T01:58:33.903Z,-4.28
2023-02-06T02:03:41.319Z,-4.20
2023-02-06T02:08:45.905Z,-4.24
2023-02-06T02:13:50.433Z,-4.30
2023-02-06T02:19:21.520Z,-4.26
2023-02-06T02:24:55.724Z,-4.23
2023-02-06T02:30:16.500Z,-4.24
2023-02-06T02:35:35.962Z,-4.28
2023-02-06T02:41:05.263Z,-4.32
2023-02-06T02:46:12.859Z,-4.34
2023-02-06T02:51:16.916Z,-4.29
2023-02-06T02:56:24.080Z,-4.25
2023-02-06T03:01:35.368Z,-4.25
2023-02-06T03:06:39.816Z,-4.28
2023-02-06T03:11:49.287Z,-4.29
2023-02-06T03:16:58.090Z,-4.26
2023-02-06T03:22:01.699Z,-4.17
2023-02-06T03:27:09.432Z,-4.10
2023-02-06T03:32:17.318Z,-4.10
2023-02-06T03:37:19.828Z,-4.08
2023-02-06T03:42:22.853Z,-4.12
2023-02-06T03:47:26.511Z,-4.13
2023-02-06T03:52:36.233Z,-4.11
2023-02-06T03:57:38.350Z,-4.10
2023-02-06T04:02:40.840Z,-4.14
2023-02-06T04:07:42.694Z,-4.15
2023-02-06T04:12:44.456Z,-4.07
2023-02-06T04:17:58.895Z,-4.06
2023-02-06T04:23:01.550Z,-4.05
2023-02-06T04:28:04.073Z,-4.08
2023-02-06T04:33:05.877Z,-4.09
2023-02-06T04:38:07.508Z,-4.02
2023-02-06T04:43:09.563Z,-3.95
2023-02-06T04:48:11.187Z,-3.90
2023-02-06T04:53:12.781Z,-3.88
2023-02-06T04:58:14.667Z,-3.88
2023-02-06T05:03:16.622Z,-3.90
2023-02-06T05:08:19.207Z,-3.92
2023-02-06T05:13:20.930Z,-3.85
2023-02-06T05:18:23.094Z,-3.82
2023-02-06T05:23:24.748Z,-3.85
2023-02-06T05:28:29.171Z,-3.87
2023-02-06T05:33:31.261Z,-3.88
2023-02-06T05:38:33.856Z,-3.89
2023-02-06T05:43:35.981Z,-3.86
2023-02-06T05:48:38.572Z,-3.79
2023-02-06T05:53:40.227Z,-3.74
2023-02-06T05:58:42.117Z,-3.73
2023-02-06T06:03:44.123Z,-3.76
2023-02-06T06:08:46.002Z,-3.80
2023-02-06T06:13:47.804Z,-3.80
2023-02-06T06:18:49.516Z,-3.80
2023-02-06T06:23:51.125Z,-3.76
2023-02-06T06:28:52.877Z,-3.65
2023-02-06T06:33:54.545Z,-3.60
2023-02-06T06:38:56.166Z,-3.65
2023-02-06T06:43:58.760Z,-3.73
2023-02-06T06:49:01.488Z,-3.75
2023-02-06T06:54:03.201Z,-3.75
2023-02-06T06:59:05.031Z,-3.70
2023-02-06T07:04:07.072Z,-3.57
2023-02-06T07:09:08.753Z,-3.44
2023-02-06T07:14:10.468Z,-3.35
2023-02-06T07:19:12.227Z,-3.29
2023-02-06T07:24:13.884Z,-3.22
2023-02-06T07:29:15.657Z,-3.07
2023-02-06T07:34:17.377Z,-2.92
2023-02-06T07:39:19.097Z,-2.78
2023-02-06T07:44:21.009Z,-2.65
2023-02-06T07:49:23.192Z,-2.47
2023-02-06T07:54:24.910Z,-2.22
2023-02-06T07:59:26.928Z,-1.95
2023-02-06T08:04:34.990Z,-1.64
2023-02-06T08:09:36.681Z,-1.31
2023-02-06T08:14:38.664Z,-0.79
2023-02-06T08:19:40.399Z,-0.29
2023-02-06T08:24:42.276Z,0.10
2023-02-06T08:29:44.104Z,0.33
2023-02-06T08:34:45.804Z,0.60
2023-02-06T08:39:47.510Z,1.14
2023-02-06T08:44:49.284Z,1.52
2023-02-06T08:49:51.298Z,1.79
2023-02-06T08:54:52.944Z,1.74
2023-02-06T08:59:54.842Z,1.61
2023-02-06T09:04:56.536Z,1.69
2023-02-06T09:09:58.172Z,1.88
2023-02-06T09:15:00.370Z,2.26
2023-02-06T09:20:02.092Z,2.62
2023-02-06T09:25:03.830Z,2.62
2023-02-06T09:30:06.175Z,2.60
2023-02-06T09:35:08.404Z,2.20
2023-02-06T09:40:12.696Z,1.76
2023-02-06T09:45:18.007Z,1.49
2023-02-06T09:50:50.600Z,1.33
2023-02-06T09:55:59.691Z,1.21
2023-02-06T10:01:20.569Z,1.04
2023-02-06T10:06:35.228Z,0.83
2023-02-06T10:12:01.394Z,0.61
2023-02-06T10:17:25.444Z,0.53
2023-02-06T10:22:40.252Z,0.45
2023-02-06T10:27:45.209Z,0.33
2023-02-06T10:32:59.315Z,0.11
2023-02-06T10:38:04.963Z,-0.12
2023-02-06T10:43:19.058Z,-0.26
2023-02-06T10:48:41.125Z,-0.33
2023-02-06T10:54:04.423Z,-0.36
2023-02-06T10:59:16.525Z,-0.39
2023-02-06T11:04:37.011Z,-0.36
2023-02-06T11:09:38.710Z,-0.29
2023-02-06T11:14:41.143Z,-0.28
2023-02-06T11:19:46.536Z,-0.30
2023-02-06T11:25:07.802Z,-0.38
2023-02-06T11:30:27.006Z,-0.56
2023-02-06T11:35:33.380Z,-0.85
2023-02-06T11:40:35.840Z,-1.01
2023-02-06T11:45:38.050Z,-1.05
2023-02-06T11:50:41.250Z,-1.01
2023-02-06T11:55:44.545Z,-0.91
2023-02-06T12:00:51.958Z,-0.85
2023-02-06T12:05:55.760Z,-0.75
2023-02-06T12:11:03.138Z,-0.70
2023-02-06T12:16:08.354Z,-0.70
2023-02-06T12:21:16.938Z,-0.71
2023-02-06T12:26:21.854Z,-0.74
2023-02-06T12:31:36.524Z,-0.73
2023-02-06T12:36:53.332Z,-0.71
2023-02-06T12:42:17.122Z,-0.67
2023-02-06T12:47:24.745Z,-0.64
2023-02-06T12:52:51.948Z,-0.67
2023-02-06T12:57:55.001Z,-0.69
2023-02-06T13:03:06.770Z,-0.70
2023-02-06T13:08:13.250Z,-0.76
2023-02-06T13:13:43.688Z,-0.84
2023-02-06T13:18:50.523Z,-0.92
2023-02-06T13:24:01.144Z,-1.06
2023-02-06T13:29:02.820Z,-1.18
2023-02-06T13:34:08.118Z,-1.23
2023-02-06T13:39:31.261Z,-1.27
2023-02-06T13:44:36.686Z,-1.32
2023-02-06T13:49:57.398Z,-1.36
2023-02-06T13:55:10.917Z,-1.42
2023-02-06T14:00:20.333Z,-1.47
2023-02-06T14:05:31.692Z,-1.50
2023-02-06T14:10:57.725Z,-1.42
2023-02-06T14:16:30.972Z,-1.40
2023-02-06T14:21:51.403Z,-1.48
2023-02-06T14:27:14.082Z,-1.58
2023-02-06T14:32:37.324Z,-1.67
2023-02-06T14:38:06.811Z,-1.70
2023-02-06T14:43:16.756Z,-1.76
2023-02-06T14:48:47.097Z,-1.82
2023-02-06T14:53:54.947Z,-1.89
2023-02-06T14:59:07.421Z,-1.94
2023-02-06T15:04:24.217Z,-2.01
2023-02-06T15:09:44.070Z,-2.07
2023-02-06T15:14:58.145Z,-2.15
2023-02-06T15:20:25.108Z,-2.25
2023-02-06T15:25:42.278Z,-2.35
2023-02-06T15:30:44.535Z,-2.46
2023-02-06T15:35:53.073Z,-2.60
2023-02-06T15:40:59.052Z,-2.71
2023-02-06T15:46:04.335Z,-2.81
2023-02-06T15:51:38.887Z,-2.89
2023-02-06T15:56:42.554Z,-2.99
2023-02-06T16:01:44.336Z,-3.10
2023-02-06T16:06:58.689Z,-3.19
2023-02-06T16:12:01.086Z,-3.30
2023-02-06T16:17:14.941Z,-3.41
2023-02-06T16:22:19.179Z,-3.50
2023-02-06T16:27:25.594Z,-3.57
2023-02-06T16:32:32.362Z,-3.57
2023-02-06T16:37:33.989Z,-3.57
2023-02-06T16:42:38.921Z,-3.57
2023-02-06T16:47:40.672Z,-3.62
2023-02-06T16:52:48.958Z,-3.70
2023-02-06T16:57:59.005Z,-3.82
2023-02-06T17:03:00.963Z,-3.93
2023-02-06T17:08:04.124Z,-4.04
2023-02-06T17:13:05.788Z,-4.19
2023-02-06T17:18:07.519Z,-4.32
2023-02-06T17:23:12.880Z,-4.44
2023-02-06T17:28:17.574Z,-4.57
2023-02-06T17:33:19.630Z,-4.66
2023-02-06T17:38:21.728Z,-4.65
2023-02-06T17:43:23.734Z,-4.56
2023-02-06T17:48:25.415Z,-4.51
2023-02-06T17:53:27.278Z,-4.54
2023-02-06T17:58:29.368Z,-4.66
2023-02-06T18:03:31.374Z,-4.86
2023-02-06T18:08:33.860Z,-5.09
2023-02-06T18:13:35.775Z,-5.29
2023-02-06T18:18:37.696Z,-5.44
2023-02-06T18:23:39.448Z,-5.52
2023-02-06T18:28:41.475Z,-5.57
2023-02-06T18:33:43.146Z,-5.61
2023-02-06T18:38:45.204Z,-5.72
2023-02-06T18:43:47.151Z,-5.88
2023-02-06T18:48:49.247Z,-6.03
2023-02-06T18:53:51.530Z,-6.15
2023-02-06T18:58:55.737Z,-6.29
2023-02-06T19:03:58.724Z,-6.37
2023-02-06T19:09:01.158Z,-6.41
2023-02-06T19:14:04.973Z,-6.36
2023-02-06T19:19:10.924Z,-6.23
2023-02-06T19:24:15.148Z,-6.15
2023-02-06T19:29:33.598Z,-6.24
2023-02-06T19:34:39.707Z,-6.40
2023-02-06T19:39:43.109Z,-6.62
2023-02-06T19:44:45.715Z,-6.76
2023-02-06T19:49:51.568Z,-6.82
2023-02-06T19:54:53.532Z,-6.71
2023-02-06T19:59:55.284Z,-6.65
2023-02-06T20:04:56.886Z,-6.76
2023-02-06T20:09:59.288Z,-6.86
2023-02-06T20:15:02.366Z,-6.94
2023-02-06T20:20:04.897Z,-7.02
2023-02-06T20:25:07.094Z,-7.07
2023-02-06T20:30:09.406Z,-7.11
2023-02-06T20:35:11.416Z,-7.17
2023-02-06T20:40:13.256Z,-7.20
2023-02-06T20:45:16.420Z,-7.25
2023-02-06T20:50:18.510Z,-7.37
2023-02-06T20:55:20.392Z,-7.52
2023-02-06T21:00:22.480Z,-7.62
2023-02-06T21:05:24.462Z,-7.69
2023-02-06T21:10:27.984Z,-7.70
2023-02-06T21:15:29.768Z,-7.67
2023-02-06T21:20:31.667Z,-7.67
2023-02-06T21:25:33.348Z,-7.71
2023-02-06T21:30:35.876Z,-7.72
2023-02-06T21:35:40.440Z,-7.74
2023-02-06T21:40:42.218Z,-7.77
2023-02-06T21:45:46.342Z,-7.78
2023-02-06T21:50:48.034Z,-7.86
2023-02-06T21:55:50.039Z,-7.94
2023-02-06T22:00:51.905Z,-7.96
2023-02-06T22:05:53.678Z,-7.90
2023-02-06T22:10:55.460Z,-7.94
2023-02-06T22:15:57.255Z,-8.07
2023-02-06T22:21:07.925Z,-8.20
2023-02-06T22:26:12.247Z,-8.27
2023-02-06T22:31:20.395Z,-8.30
2023-02-06T22:36:24.293Z,-8.29
2023-02-06T22:41:27.106Z,-8.29
2023-02-06T22:46:31.726Z,-8.29
2023-02-06T22:51:34.832Z,-8.19
2023-02-06T22:56:38.223Z,-8.17
2023-02-06T23:01:48.470Z,-8.22
2023-02-06T23:06:50.662Z,-8.23
2023-02-06T23:11:53.054Z,-8.21
2023-02-06T23:16:54.858Z,-8.14
2023-02-06T23:21:56.571Z,-8.11
2023-02-06T23:26:58.233Z,-8.19
2023-02-06T23:32:00.189Z,-8.30
2023-02-06T23:37:01.951Z,-8.40
2023-02-06T23:42:03.853Z,-8.42
2023-02-06T23:47:05.518Z,-8.44
2023-02-06T23:52:07.256Z,-8.42
2023-02-06T23:57:09.032Z,-8.31
